Time;durP1;ratioP1;P1;durP2;ratioP2;P2;SDS_P1;SDS_P2;PMS_P1;PMS_P2;Temp;Humidity;BMP_temperature;BMP_pressure;BME280_temperature;BME280_humidity;BME280_pressure;Samples;Min_cycle;Max_cycle;Signal;HPM_P1;HPM_P2
2023/10/11 00:03:16;;;;;;;14.30;5.07;;;;;;;17.79;83.93;99981.97;12201847;19;20007;-81
2023/10/11 00:07:18;;;;;;;15.80;4.57;;;;;;;17.84;84.12;99988.31;12181331;19;20014;-80
2023/10/11 00:11:24;;;;;;;11.65;5.03;;;;;;;17.89;83.82;99990.25;12202319;19;20010;-81
2023/10/11 00:15:29;;;;;;;11.13;4.60;;;;;;;17.93;83.07;99985.72;12179119;19;20018;-80
2023/10/11 00:19:33;;;;;;;11.63;4.78;;;;;;;17.97;83.11;99986.81;12194750;19;20007;-80
2023/10/11 00:23:36;;;;;;;14.45;4.93;;;;;;;18.00;82.77;99989.03;12197531;19;20002;-78
2023/10/11 00:27:38;;;;;;;11.35;5.05;;;;;;;18.01;82.56;99982.31;12180055;19;20007;-80
2023/10/11 00:31:40;;;;;;;11.40;4.47;;;;;;;18.02;82.40;99986.75;12188604;19;20002;-81
2023/10/11 00:35:47;;;;;;;11.73;4.13;;;;;;;18.07;81.67;99985.88;12195681;19;20014;-79
2023/10/11 00:39:53;;;;;;;16.40;5.03;;;;;;;18.11;81.42;99965.44;12166997;19;20002;-79
2023/10/11 00:43:57;;;;;;;11.10;4.35;;;;;;;18.14;81.19;99962.06;12190591;19;20026;-81
2023/10/11 00:47:59;;;;;;;9.27;4.13;;;;;;;18.14;81.12;99962.06;12189088;19;20055;-80
2023/10/11 00:52:04;;;;;;;10.40;4.30;;;;;;;18.15;80.88;99955.38;12169141;19;20006;-79
2023/10/11 00:56:07;;;;;;;10.52;4.75;;;;;;;18.13;80.88;99951.22;12192506;19;20007;-78
2023/10/11 01:00:13;;;;;;;12.13;4.47;;;;;;;18.12;80.24;99955.97;12181097;19;20010;-78
2023/10/11 01:04:15;;;;;;;14.70;4.38;;;;;;;18.09;80.33;99962.16;12189609;19;20085;-80
2023/10/11 01:08:20;;;;;;;10.27;4.70;;;;;;;18.03;80.83;99949.41;12192854;19;21267;-79
2023/10/11 01:12:22;;;;;;;11.02;3.72;;;;;;;17.98;80.57;99952.22;12169079;19;20007;-81
2023/10/11 01:16:26;;;;;;;15.07;4.80;;;;;;;17.92;80.49;99957.03;12191149;19;21190;-81
2023/10/11 01:20:31;;;;;;;9.98;3.95;;;;;;;17.89;80.62;99952.03;12185778;19;20019;-79
2023/10/11 01:24:33;;;;;;;12.05;4.97;;;;;;;17.84;80.55;99945.69;12168912;19;20049;-79
2023/10/11 01:28:38;;;;;;;14.77;5.07;;;;;;;17.82;80.86;99950.72;12191530;19;20010;-80
2023/10/11 01:32:43;;;;;;;11.52;4.88;;;;;;;17.84;80.70;99937.31;12187855;19;20028;-81
2023/10/11 01:36:45;;;;;;;8.98;3.95;;;;;;;17.82;80.71;99931.19;12166809;19;20035;-79
2023/10/11 01:40:54;;;;;;;11.33;4.53;;;;;;;17.80;80.40;99939.88;12188246;19;20013;-82
2023/10/11 01:44:56;;;;;;;10.18;4.30;;;;;;;17.75;80.96;99946.28;12184505;19;20031;-81
2023/10/11 01:48:58;;;;;;;10.43;4.40;;;;;;;17.70;81.04;99935.22;12162766;19;20010;-79
2023/10/11 01:52:59;;;;;;;10.18;4.43;;;;;;;17.66;81.50;99933.28;12186107;19;20013;-82
2023/10/11 01:57:01;;;;;;;11.52;4.57;;;;;;;17.66;81.53;99939.69;12182224;19;20647;-80
2023/10/11 02:01:05;;;;;;;12.57;4.93;;;;;;;17.68;81.27;99931.06;12160351;19;20017;-79
2023/10/11 02:05:08;;;;;;;13.90;5.78;;;;;;;17.67;81.86;99933.03;12184904;19;20256;-80
2023/10/11 02:09:11;;;;;;;;;;;;;;;17.66;82.06;99936.91;12170435;19;20006;-81
2023/10/11 02:13:15;;;;;;;15.23;5.25;;;;;;;17.64;82.18;99935.53;12192919;19;21226;-80
2023/10/11 02:17:23;;;;;;;12.00;5.10;;;;;;;17.63;82.59;99925.53;12203711;19;20010;-82
2023/10/11 02:21:29;;;;;;;11.45;4.78;;;;;;;17.65;82.61;99929.69;12184671;19;20025;-80
2023/10/11 02:25:34;;;;;;;10.82;4.32;;;;;;;17.66;83.07;99928.56;12203257;19;20006;-82
2023/10/11 02:29:36;;;;;;;10.65;4.80;;;;;;;17.67;82.72;99924.66;12196212;19;20027;-82
2023/10/11 02:33:39;;;;;;;11.13;4.32;;;;;;;17.62;83.75;99926.66;12172250;19;20465;-82
2023/10/11 02:37:45;;;;;;;12.85;4.88;;;;;;;17.62;83.85;99926.66;12199539;19;20038;-84
2023/10/11 02:41:49;;;;;;;13.82;4.47;;;;;;;17.59;84.29;99919.72;12204327;19;20006;-82
2023/10/11 02:45:52;;;;;;;9.88;4.57;;;;;;;17.62;84.43;99921.09;12172160;19;20135;-84
2023/10/11 02:49:54;;;;;;;13.90;4.80;;;;;;;17.61;84.54;99909.13;12191750;19;20003;-82
2023/10/11 02:53:57;;;;;;;8.73;4.53;;;;;;;17.57;84.76;99913.59;12193101;19;20018;-82
2023/10/11 02:58:08;;;;;;;11.60;4.27;;;;;;;17.52;85.36;99903.34;12174790;19;20006;-82
2023/10/11 03:02:15;;;;;;;10.88;4.55;;;;;;;17.48;85.67;99905.03;12197308;19;20366;-81
2023/10/11 03:06:19;;;;;;;12.95;4.53;;;;;;;17.50;85.62;99907.56;12177600;19;20736;-79
2023/10/11 03:10:22;;;;;;;10.48;4.25;;;;;;;17.43;86.28;99904.25;12192750;19;20010;-80
2023/10/11 03:14:24;;;;;;;7.38;4.15;;;;;;;17.36;87.16;99906.56;12191640;19;20043;-80
2023/10/11 03:18:31;;;;;;;;;;;;;;;17.25;87.78;99903.88;12173487;19;20030;-83
2023/10/11 03:22:35;;;;;;;11.23;4.40;;;;;;;17.15;88.71;99901.19;12191181;19;19914;-81
2023/10/11 03:26:38;;;;;;;13.20;4.10;;;;;;;17.08;89.77;99892.34;12191597;19;20027;-81
2023/10/11 03:30:42;;;;;;;11.57;5.40;;;;;;;16.99;90.59;99894.09;12168150;19;20010;-81
2023/10/11 03:34:44;;;;;;;12.07;4.15;;;;;;;16.93;91.10;99893.28;12195493;19;20016;-81
2023/10/11 03:38:52;;;;;;;14.93;4.65;;;;;;;16.91;91.12;99897.47;12190088;19;20006;-81
2023/10/11 03:42:59;;;;;;;10.00;4.55;;;;;;;16.85;91.27;99883.59;12163999;19;20039;-80
2023/10/11 03:47:08;;;;;;;13.30;4.07;;;;;;;16.85;91.20;99889.16;12192415;19;20639;-82
2023/10/11 03:51:12;;;;;;;10.65;4.43;;;;;;;16.83;90.90;99880.25;12174325;19;20013;-81
2023/10/11 03:55:14;;;;;;;13.02;4.53;;;;;;;16.83;90.64;99888.59;12192324;19;20002;-79
2023/10/11 03:59:15;;;;;;;11.38;5.20;;;;;;;16.85;90.22;99875.25;12192567;19;20560;-80
2023/10/11 04:03:20;;;;;;;11.03;4.37;;;;;;;16.84;90.19;99876.38;12166086;19;20010;-81
2023/10/11 04:07:23;;;;;;;13.32;5.90;;;;;;;16.80;90.24;99877.22;12191676;19;20020;-81
2023/10/11 04:11:31;;;;;;;11.43;5.15;;;;;;;16.75;90.52;99866.94;12189950;19;20705;-81
2023/10/11 04:15:33;;;;;;;12.80;4.97;;;;;;;16.72;90.50;99863.91;12171717;19;20050;-82
2023/10/11 04:19:39;;;;;;;11.55;4.35;;;;;;;16.64;91.00;99865.34;12195582;19;20179;-80
2023/10/11 04:23:45;;;;;;;10.82;5.28;;;;;;;16.58;91.23;99859.00;12196498;19;20015;-81
2023/10/11 04:27:54;;;;;;;13.55;4.80;;;;;;;16.50;91.93;99859.59;12182994;19;21227;-81
2023/10/11 04:32:09;;;;;;;10.32;4.13;;;;;;;16.41;92.55;99856.59;12191437;19;20002;-81
2023/10/11 04:36:11;;;;;;;11.40;4.63;;;;;;;16.37;93.15;99863.03;12166729;19;20010;-78
2023/10/11 04:40:23;;;;;;;14.23;4.90;;;;;;;16.34;93.36;99858.88;12177065;19;20035;-80
2023/10/11 04:44:31;;;;;;;13.38;4.43;;;;;;;16.31;94.23;99859.44;12188618;19;20094;-80
2023/10/11 04:48:36;;;;;;;12.82;4.55;;;;;;;16.30;94.32;99873.63;12162494;19;20010;-80
2023/10/11 04:52:39;;;;;;;15.95;4.75;;;;;;;16.28;94.56;99859.19;12202652;19;20003;-80
2023/10/11 05:00:47;;;;;;;16.67;4.70;;;;;;;16.27;95.08;99860.28;12162702;19;20007;-79
2023/10/11 05:04:51;;;;;;;19.17;6.07;;;;;;;16.23;95.15;99865.59;12185010;19;20010;-79
2023/10/11 05:09:03;;;;;;;10.57;4.35;;;;;;;16.21;95.46;99865.06;12181764;19;20010;-79
2023/10/11 05:13:13;;;;;;;10.95;4.72;;;;;;;16.24;95.28;99877.53;12163542;19;20029;-80
2023/10/11 05:21:26;;;;;;;11.65;5.00;;;;;;;16.18;95.43;99879.50;12161479;19;20011;-79
2023/10/11 05:25:39;;;;;;;11.95;4.13;;;;;;;16.13;95.80;99877.59;12184911;19;20010;-82
2023/10/11 05:30:05;;;;;;;13.40;5.25;;;;;;;16.16;95.11;99888.16;12186533;19;20018;-81
2023/10/11 05:34:45;;;;;;;20.02;5.82;;;;;;;16.19;94.55;99886.75;12163897;19;20019;-81
2023/10/11 05:51:40;;;;;;;13.18;4.60;;;;;;;16.32;93.82;99891.69;12169576;19;20002;-81
2023/10/11 05:55:43;;;;;;;11.98;4.97;;;;;;;16.30;94.32;99884.75;12192634;19;20589;-80
2023/10/11 05:59:47;;;;;;;13.85;4.35;;;;;;;16.29;94.52;99891.44;12191330;19;20006;-81
2023/10/11 06:03:51;;;;;;;14.43;4.57;;;;;;;16.31;94.83;99890.03;12164876;19;20106;-81
2023/10/11 06:08:03;;;;;;;14.35;5.57;;;;;;;16.34;94.47;99881.13;12193650;19;20014;-80
2023/10/11 06:12:22;;;;;;;10.75;4.43;;;;;;;16.35;94.40;99873.59;12189161;19;20841;-81
2023/10/11 06:16:24;;;;;;;11.55;4.65;;;;;;;16.40;94.04;99871.63;12165534;19;20003;-79
2023/10/11 06:20:38;;;;;;;16.90;4.63;;;;;;;16.46;93.82;99868.81;12191175;19;20002;-80
2023/10/11 06:24:40;;;;;;;14.25;4.75;;;;;;;16.45;94.35;99879.13;12167343;19;20015;-80
2023/10/11 06:28:44;;;;;;;11.93;4.97;;;;;;;16.45;94.54;99881.91;12190500;19;20592;-79
2023/10/11 06:32:49;;;;;;;12.35;4.82;;;;;;;16.49;94.50;99896.88;12189501;19;20002;-79
2023/10/11 06:36:53;;;;;;;16.13;5.22;;;;;;;16.51;94.51;99904.91;12174008;19;20016;-79
2023/10/11 06:41:36;;;;;;;17.50;4.90;;;;;;;16.55;94.40;99914.38;12190485;19;20076;-80
2023/10/11 06:45:17;;;;;;;19.67;5.80;;;;;;;16.67;93.47;99920.41;12167070;19;20019;-79
2023/10/11 06:49:19;;;;;;;9.53;3.87;;;;;;;16.76;92.79;99929.84;12190245;19;20067;-80
2023/10/11 06:53:21;;;;;;;10.90;4.35;;;;;;;16.81;92.50;99920.66;12190546;19;20006;-80
2023/10/11 06:57:23;;;;;;;15.10;5.33;;;;;;;16.85;92.14;99917.00;12172053;19;20010;-80
2023/10/11 07:01:30;;;;;;;10.10;3.50;;;;;;;16.94;91.48;99928.34;12193249;19;21099;-81
2023/10/11 07:05:40;;;;;;;14.80;4.82;;;;;;;17.11;90.20;99936.31;12190774;19;20007;-81
2023/10/11 07:09:56;;;;;;;13.60;4.55;;;;;;;17.26;88.61;99940.91;12167083;19;20006;-81
2023/10/11 07:14:00;;;;;;;14.10;4.88;;;;;;;17.43;87.84;99923.75;12187077;19;20010;-81
2023/10/11 07:18:08;;;;;;;12.95;4.55;;;;;;;17.58;86.53;99929.22;12194918;19;20474;-81
2023/10/11 07:22:18;;;;;;;14.35;4.22;;;;;;;17.73;85.54;99937.41;12170209;19;20007;-80
2023/10/11 07:30:37;;;;;;;13.40;4.50;;;;;;;18.02;83.21;99936.56;12164467;19;20013;-81
2023/10/11 07:34:40;;;;;;;10.98;5.00;;;;;;;18.17;82.18;99936.41;12193265;19;20512;-81
2023/10/11 07:38:43;;;;;;;12.60;4.45;;;;;;;18.28;80.78;99928.72;12194088;19;20023;-82
2023/10/11 07:42:45;;;;;;;14.02;5.18;;;;;;;18.48;79.41;99913.69;12165820;19;21137;-81
2023/10/11 07:46:48;;;;;;;13.67;4.63;;;;;;;18.63;78.81;99921.84;12187224;19;20040;-81
2023/10/11 07:50:52;;;;;;;15.38;5.05;;;;;;;18.80;77.77;99926.09;12187167;19;20589;-81
2023/10/11 07:54:55;;;;;;;14.10;4.57;;;;;;;18.95;77.41;99911.91;12161440;19;20477;-81
2023/10/11 07:59:00;;;;;;;16.70;4.90;;;;;;;19.16;75.56;99919.97;12180632;19;20022;-81
2023/10/11 08:03:05;;;;;;;8.23;4.00;;;;;;;19.40;74.01;99912.28;12185486;19;20011;-81
2023/10/11 08:07:12;;;;;;;9.75;4.07;;;;;;;19.62;72.06;99924.75;12164212;19;20007;-81
2023/10/11 08:11:22;;;;;;;11.60;4.22;;;;;;;19.84;70.86;99927.75;12184333;19;20002;-80
2023/10/11 08:15:25;;;;;;;9.40;4.35;;;;;;;20.04;68.63;99918.09;12164518;19;20006;-80
2023/10/11 08:19:30;;;;;;;14.70;4.68;;;;;;;20.27;68.10;99919.03;12186952;19;20034;-80
2023/10/11 08:23:31;;;;;;;10.05;4.32;;;;;;;20.53;67.77;99922.16;12186674;19;20031;-80
2023/10/11 08:27:35;;;;;;;12.87;5.43;;;;;;;20.73;67.07;99917.22;12162571;19;20026;-80
2023/10/11 08:31:39;;;;;;;11.40;4.07;;;;;;;20.89;64.62;99935.34;12185795;19;20043;-81
2023/10/11 08:35:46;;;;;;;12.32;4.68;;;;;;;21.05;64.12;99939.44;12188883;19;20007;-81
2023/10/11 08:39:48;;;;;;;10.35;4.65;;;;;;;21.14;63.86;99945.94;12202721;19;20556;-81
2023/10/11 08:43:56;;;;;;;12.88;4.53;;;;;;;21.28;63.65;99942.25;12231636;19;20003;-81
2023/10/11 08:48:00;;;;;;;13.68;5.13;;;;;;;21.36;60.82;99939.56;12232659;19;20017;-80
2023/10/11 08:52:02;;;;;;;14.57;4.80;;;;;;;21.48;61.86;99930.56;12213275;19;20013;-80
2023/10/11 08:56:05;;;;;;;12.85;4.30;;;;;;;21.63;62.01;99934.94;12231850;19;20326;-80
2023/10/11 09:00:17;;;;;;;14.10;4.38;;;;;;;21.71;61.01;99944.53;12229818;19;20003;-80
2023/10/11 09:04:26;;;;;;;14.45;5.78;;;;;;;21.80;60.51;99926.63;12210080;19;20045;-80
2023/10/11 09:08:35;;;;;;;13.48;5.18;;;;;;;21.96;60.86;99917.78;12231775;19;19999;-79
2023/10/11 09:12:46;;;;;;;11.20;5.00;;;;;;;22.07;59.59;99924.75;12173357;19;20016;-80
2023/10/11 09:16:51;;;;;;;13.75;5.22;;;;;;;22.28;58.68;99925.88;12194634;19;20019;-80
2023/10/11 09:21:09;;;;;;;10.50;5.30;;;;;;;22.37;57.78;99922.25;12192605;19;20014;-80
2023/10/11 09:25:33;;;;;;;10.77;4.22;;;;;;;22.43;57.60;99929.38;12169505;19;20371;-81
2023/10/11 09:29:38;;;;;;;12.13;5.27;;;;;;;22.65;57.47;99922.81;12188730;19;20474;-81
2023/10/11 09:33:51;;;;;;;13.60;5.00;;;;;;;22.73;56.39;99931.25;12173921;19;20003;-80
2023/10/11 09:37:57;;;;;;;12.80;4.72;;;;;;;22.86;57.08;99926.63;12187962;19;21382;-80
2023/10/11 09:42:04;;;;;;;10.40;4.07;;;;;;;22.91;56.09;99929.28;12186440;19;20003;-81
2023/10/11 09:46:11;;;;;;;14.38;4.88;;;;;;;23.06;56.29;99927.19;12169041;19;20010;-79
2023/10/11 09:50:15;;;;;;;11.88;4.60;;;;;;;23.19;55.90;99931.78;12191591;19;20011;-80
2023/10/11 09:54:17;;;;;;;12.13;4.45;;;;;;;23.33;56.03;99926.84;12158898;19;20003;-81
2023/10/11 09:58:58;;;;;;;15.27;5.18;;;;;;;23.45;54.62;99923.34;12183703;19;20088;-81
2023/10/11 10:03:04;;;;;;;15.68;5.32;;;;;;;23.42;53.61;99929.63;12179722;19;20054;-80
2023/10/11 10:07:21;;;;;;;14.48;5.38;;;;;;;23.56;54.72;99935.06;12162344;19;20003;-80
2023/10/11 10:11:23;;;;;;;13.15;4.68;;;;;;;23.63;53.95;99924.13;12179922;19;20447;-79
2023/10/11 10:15:32;;;;;;;20.90;5.28;;;;;;;23.65;52.93;99927.44;12161463;19;20600;-81
2023/10/11 10:19:39;;;;;;;13.02;5.28;;;;;;;23.56;53.30;99924.66;12182939;19;20027;-81
2023/10/11 10:23:42;;;;;;;19.48;5.13;;;;;;;23.55;54.30;99920.16;12176030;19;20465;-80
2023/10/11 10:27:45;;;;;;;11.45;5.32;;;;;;;23.44;54.43;99918.88;12157453;19;20010;-80
2023/10/11 10:32:04;;;;;;;13.95;4.80;;;;;;;23.47;54.70;99911.75;12178471;19;20018;-80
2023/10/11 10:36:21;;;;;;;16.90;4.75;;;;;;;23.51;55.11;99905.13;12191385;19;20035;-80
2023/10/11 10:40:25;;;;;;;10.20;4.43;;;;;;;23.64;55.35;99903.28;12167649;19;20026;-80
2023/10/11 10:44:29;;;;;;;16.75;4.97;;;;;;;23.77;55.27;99896.66;12188300;19;20010;-80
2023/10/11 10:48:39;;;;;;;14.68;5.20;;;;;;;23.96;54.70;99889.78;12164688;19;20022;-80
2023/10/11 10:52:42;;;;;;;13.57;5.28;;;;;;;24.05;54.13;99897.03;12189465;19;20006;-81
2023/10/11 10:56:47;;;;;;;11.87;4.87;;;;;;;24.34;55.16;99898.22;12189953;19;20050;-81
2023/10/11 11:00:54;;;;;;;14.60;4.60;;;;;;;24.58;54.36;99885.50;12160567;19;20265;-81
2023/10/11 11:05:13;;;;;;;14.95;5.00;;;;;;;24.78;52.57;99887.53;12183084;19;20011;-81
2023/10/11 11:14:27;;;;;;;17.13;4.82;;;;;;;25.25;52.00;99870.34;12178744;19;20023;-80
2023/10/11 11:18:33;;;;;;;16.58;4.50;;;;;;;25.50;51.23;99870.47;12160408;19;20796;-81
2023/10/11 11:22:52;;;;;;;10.40;5.03;;;;;;;25.66;51.21;99860.94;12208440;19;20006;-81
2023/10/11 11:27:32;;;;;;;12.23;4.75;;;;;;;25.97;49.36;99864.44;12182606;19;20037;-81
2023/10/11 11:31:59;;;;;;;17.67;5.95;;;;;;;26.28;49.18;99867.50;12162044;19;20006;-83
2023/10/11 11:36:30;;;;;;;20.15;5.10;;;;;;;26.61;48.29;99855.22;12183500;19;20010;-81
2023/10/11 11:40:38;;;;;;;19.08;5.18;;;;;;;27.17;47.11;99854.50;12163534;19;20109;-80
2023/10/11 11:44:39;;;;;;;14.25;5.10;;;;;;;27.68;45.55;99838.50;12178860;19;20354;-83
2023/10/11 11:48:42;;;;;;;19.48;5.20;;;;;;;28.20;44.62;99841.41;12158919;19;20015;-80
2023/10/11 11:52:44;;;;;;;13.50;4.45;;;;;;;28.72;43.30;99821.19;12177100;19;20493;-80
2023/10/11 11:56:48;;;;;;;12.88;5.13;;;;;;;28.97;42.10;99821.75;12183254;19;20033;-79
2023/10/11 12:01:15;;;;;;;13.38;4.85;;;;;;;29.20;40.79;99813.28;12152625;19;20011;-80
2023/10/11 12:05:11;;;;;;;;;;;;;;;29.34;40.32;99812.75;12184539;19;20029;-80
2023/10/11 12:09:21;;;;;;;16.55;4.88;;;;;;;29.71;39.54;99810.19;12156494;19;19918;-80
2023/10/11 12:13:23;;;;;;;11.30;4.57;;;;;;;30.24;39.18;99808.66;12174598;19;20013;-81
2023/10/11 12:17:26;;;;;;;20.98;4.93;;;;;;;30.58;38.23;99789.63;12181096;19;20087;-80
2023/10/11 12:21:28;;;;;;;;;;;;;;;30.91;38.22;99786.03;12162312;19;20006;-79
2023/10/11 12:25:33;;;;;;;15.40;5.75;;;;;;;30.93;36.78;99775.06;12176857;19;20664;-79
2023/10/11 12:29:37;;;;;;;11.90;4.72;;;;;;;31.12;36.63;99771.22;12181022;19;20018;-81
2023/10/11 12:33:44;;;;;;;10.95;5.25;;;;;;;31.46;35.57;99776.88;12156788;19;20022;-80
2023/10/11 12:37:46;;;;;;;14.07;5.28;;;;;;;31.64;34.56;99762.81;12178026;19;20006;-80
2023/10/11 12:41:51;;;;;;;13.68;5.55;;;;;;;31.77;34.07;99762.13;12173598;19;20011;-80
2023/10/11 12:45:53;;;;;;;10.20;4.25;;;;;;;31.87;31.76;99765.44;12149867;19;20002;-80
2023/10/11 12:49:54;;;;;;;13.10;4.32;;;;;;;31.97;30.11;99770.41;12176776;19;20045;-79
2023/10/11 12:53:57;;;;;;;11.88;5.00;;;;;;;32.08;30.27;99770.50;12173618;19;20010;-81
2023/10/11 12:58:00;;;;;;;11.00;4.82;;;;;;;32.10;30.10;99763.19;12154116;19;20011;-80
2023/10/11 13:02:04;;;;;;;11.05;4.03;;;;;;;31.46;30.18;99756.94;12165007;19;20002;-81
2023/10/11 13:06:09;;;;;;;14.27;4.15;;;;;;;30.53;30.93;99756.69;12175468;19;20031;-81
2023/10/11 13:10:12;;;;;;;17.50;4.22;;;;;;;29.78;31.91;99755.56;12155538;19;20678;-81
2023/10/11 13:14:18;;;;;;;9.35;4.22;;;;;;;29.28;32.13;99760.34;12174267;19;20007;-80
2023/10/11 13:18:22;;;;;;;12.95;5.10;;;;;;;28.99;33.42;99747.59;12160693;19;20011;-80
2023/10/11 13:22:24;;;;;;;15.40;4.13;;;;;;;28.72;33.54;99746.66;12193475;19;20011;-80
2023/10/11 13:26:25;;;;;;;10.23;4.65;;;;;;;28.65;34.11;99746.53;12192541;19;20007;-79
2023/10/11 13:30:27;;;;;;;10.68;4.07;;;;;;;28.36;33.82;99746.69;12169410;19;20018;-80
2023/10/11 13:34:30;;;;;;;10.95;3.97;;;;;;;28.04;34.37;99737.47;12172389;19;20664;-79
2023/10/11 13:38:32;;;;;;;13.77;4.32;;;;;;;27.66;34.96;99732.47;12175195;19;20014;-78
2023/10/11 13:42:37;;;;;;;14.35;4.95;;;;;;;27.35;35.64;99727.69;12155866;19;20026;-79
2023/10/11 13:46:39;;;;;;;15.13;3.95;;;;;;;27.19;36.59;99724.84;12179538;19;20007;-80
2023/10/11 13:50:41;;;;;;;13.13;3.88;;;;;;;27.01;36.46;99732.81;12176438;19;20108;-78
2023/10/11 13:54:49;;;;;;;10.45;4.05;;;;;;;26.98;36.88;99722.22;12160294;19;20014;-78
2023/10/11 13:58:52;;;;;;;11.38;4.38;;;;;;;26.93;37.76;99728.16;12169220;19;20382;-80
2023/10/11 14:03:25;;;;;;;11.70;3.78;;;;;;;26.89;37.01;99713.06;12165054;19;20010;-78
2023/10/11 14:07:25;;;;;;;15.73;5.03;;;;;;;26.84;37.06;99707.72;12155914;19;20007;-79
2023/10/11 14:11:30;;;;;;;11.30;4.15;;;;;;;26.78;37.68;99707.16;12185011;19;20010;-80
2023/10/11 14:15:32;;;;;;;9.73;3.83;;;;;;;26.78;37.28;99701.50;12164703;19;20565;-78
2023/10/11 14:19:35;;;;;;;10.35;4.50;;;;;;;26.74;37.71;99697.72;12188460;19;20009;-78
2023/10/11 14:23:38;;;;;;;;;;;;;;;26.66;38.07;99696.72;12190490;19;20021;-78
2023/10/11 14:27:40;;;;;;;10.73;3.33;;;;;;;26.78;37.52;99690.19;12160327;19;19910;-79
2023/10/11 14:31:42;;;;;;;13.35;4.85;;;;;;;26.77;37.98;99697.84;12179662;19;20006;-78
2023/10/11 14:35:47;;;;;;;12.63;3.85;;;;;;;26.75;37.92;99683.25;12184992;19;20011;-78
2023/10/11 14:39:50;;;;;;;11.10;4.22;;;;;;;26.76;38.25;99689.72;12162041;19;20015;-80
2023/10/11 14:43:52;;;;;;;12.57;4.43;;;;;;;26.80;38.08;99685.81;12183063;19;20007;-80
2023/10/11 14:47:56;;;;;;;12.13;4.47;;;;;;;26.77;38.20;99682.88;12185441;19;20508;-79
2023/10/11 14:51:58;;;;;;;9.07;3.20;;;;;;;26.76;38.30;99686.88;12169131;19;20602;-79
2023/10/11 14:56:07;;;;;;;11.43;4.45;;;;;;;26.83;38.26;99678.63;12186853;19;20011;-79
2023/10/11 15:00:15;;;;;;;11.57;3.70;;;;;;;26.91;38.42;99676.78;12184808;19;20023;-80
2023/10/11 15:04:17;;;;;;;10.27;4.70;;;;;;;26.84;38.59;99676.63;12158030;19;20013;-79
2023/10/11 15:08:20;;;;;;;10.27;3.95;;;;;;;26.67;38.73;99667.25;12188168;19;20007;-79
2023/10/11 15:12:22;;;;;;;11.63;4.07;;;;;;;26.50;38.87;99659.09;12160813;19;20023;-81
2023/10/11 15:16:23;;;;;;;11.43;3.63;;;;;;;26.33;38.95;99666.69;12180450;19;20069;-79
2023/10/11 15:20:31;;;;;;;14.27;5.10;;;;;;;26.23;39.64;99667.19;12187484;19;20006;-79
2023/10/11 15:24:33;;;;;;;7.85;3.67;;;;;;;26.09;39.60;99666.78;12164847;19;20010;-80
2023/10/11 15:28:36;;;;;;;12.80;3.95;;;;;;;25.98;39.93;99671.28;12182317;19;20010;-79
2023/10/11 15:32:39;;;;;;;12.88;3.88;;;;;;;25.81;40.09;99678.81;12178819;19;20392;-79
2023/10/11 15:36:41;;;;;;;11.23;4.32;;;;;;;25.65;40.55;99669.44;12159042;19;20421;-79
2023/10/11 15:40:46;;;;;;;13.55;4.78;;;;;;;25.46;40.43;99670.88;12181037;19;20010;-79
2023/10/11 15:44:48;;;;;;;10.88;3.88;;;;;;;25.32;40.74;99666.75;12186506;19;20002;-79
2023/10/11 15:48:50;;;;;;;11.40;3.90;;;;;;;25.18;41.45;99667.09;12161280;19;20006;-80
2023/10/11 15:52:52;;;;;;;8.10;3.58;;;;;;;25.01;41.80;99659.63;12182692;19;20026;-80
2023/10/11 15:56:54;;;;;;;9.20;3.85;;;;;;;24.82;42.59;99671.47;12183980;19;20010;-79
2023/10/11 16:01:03;;;;;;;8.75;4.03;;;;;;;24.60;43.70;99672.72;12155367;19;20014;-79
2023/10/11 16:05:06;;;;;;;8.80;3.42;;;;;;;24.36;43.90;99670.56;12175606;19;20005;-79
2023/10/11 16:09:11;;;;;;;9.50;4.22;;;;;;;24.17;44.30;99676.72;12188094;19;20007;-79
2023/10/11 16:13:13;;;;;;;13.98;4.55;;;;;;;23.95;45.36;99668.63;12156965;19;20006;-79
2023/10/11 16:17:16;;;;;;;11.45;4.35;;;;;;;23.75;45.87;99667.44;12180279;19;20014;-79
2023/10/11 16:21:20;;;;;;;10.65;4.10;;;;;;;23.53;46.96;99657.28;12158702;19;20729;-80
2023/10/11 16:25:22;;;;;;;11.73;4.10;;;;;;;23.30;47.31;99662.41;12180399;19;20006;-80
2023/10/11 16:29:24;;;;;;;13.77;3.93;;;;;;;23.15;48.25;99664.63;12177830;19;20805;-79
2023/10/11 16:33:27;;;;;;;11.43;3.88;;;;;;;23.00;48.76;99667.16;12150705;19;20094;-79
2023/10/11 16:37:31;;;;;;;;;;;;;;;22.85;48.76;99651.66;12180026;19;20024;-79
2023/10/11 16:41:34;;;;;;;14.75;3.63;;;;;;;22.67;49.78;99650.88;12176190;19;19914;-79
2023/10/11 16:45:37;;;;;;;11.15;3.90;;;;;;;22.51;51.14;99647.75;12164385;19;21347;-80
2023/10/11 16:49:42;;;;;;;16.52;4.53;;;;;;;22.32;51.80;99650.94;12181728;19;20035;-79
2023/10/11 16:53:44;;;;;;;19.17;4.10;;;;;;;22.17;52.81;99657.06;12175432;19;20071;-79
2023/10/11 16:57:46;;;;;;;12.27;3.60;;;;;;;22.05;53.13;99657.72;12156132;19;20024;-79
2023/10/11 17:01:48;;;;;;;13.23;4.40;;;;;;;21.92;52.95;99653.91;12177313;19;20014;-79
2023/10/11 17:05:54;;;;;;;15.90;3.75;;;;;;;21.83;53.72;99655.88;12182161;19;20010;-80
2023/10/11 17:09:56;;;;;;;13.77;5.25;;;;;;;21.71;53.84;99653.72;12157226;19;20086;-79
2023/10/11 17:13:58;;;;;;;11.73;3.63;;;;;;;21.60;54.89;99661.63;12173944;19;20058;-79
2023/10/11 17:18:04;;;;;;;13.57;4.20;;;;;;;21.51;54.84;99657.16;12176373;19;20359;-79
2023/10/11 17:22:06;;;;;;;11.02;3.92;;;;;;;21.42;55.65;99653.50;12156284;19;20250;-79
2023/10/11 17:26:12;;;;;;;13.50;4.22;;;;;;;21.37;55.83;99658.09;12176368;19;20063;-80
2023/10/11 17:30:21;;;;;;;10.30;4.10;;;;;;;21.31;56.68;99648.16;12153109;19;20018;-79
2023/10/11 17:34:23;;;;;;;10.30;3.92;;;;;;;21.29;56.40;99653.25;12178132;19;20409;-79
2023/10/11 17:38:26;;;;;;;11.32;3.55;;;;;;;21.27;56.85;99655.59;12178614;19;21381;-80
2023/10/11 17:42:29;;;;;;;14.32;4.82;;;;;;;21.22;57.45;99661.31;12165658;19;20010;-79
2023/10/11 17:46:31;;;;;;;11.52;4.43;;;;;;;21.15;57.97;99658.19;12197235;19;20007;-80
2023/10/11 17:50:34;;;;;;;10.40;3.40;;;;;;;21.11;57.96;99659.97;12194920;19;20016;-79
2023/10/11 17:54:36;;;;;;;11.05;4.18;;;;;;;21.03;58.17;99667.19;12170409;19;20497;-79
2023/10/11 17:58:38;;;;;;;;;;;;;;;21.00;58.90;99664.19;12196587;19;20094;-79
2023/10/11 18:02:41;;;;;;;13.30;3.80;;;;;;;20.96;58.85;99666.00;12196083;19;19967;-79
2023/10/11 18:06:46;;;;;;;9.82;4.00;;;;;;;20.92;59.26;99668.63;12175207;19;20018;-79
2023/10/11 18:10:48;;;;;;;10.25;3.63;;;;;;;20.87;59.85;99666.78;12199058;19;20373;-78
2023/10/11 18:14:52;;;;;;;11.45;4.35;;;;;;;20.84;59.79;99681.44;12193327;19;20109;-78
2023/10/11 18:18:54;;;;;;;10.32;4.28;;;;;;;20.81;60.36;99676.47;12167463;19;20016;-79
2023/10/11 18:22:56;;;;;;;14.13;3.88;;;;;;;20.78;60.57;99670.69;12182036;19;20006;-80
2023/10/11 18:27:00;;;;;;;10.20;3.43;;;;;;;20.75;60.63;99674.97;12187577;19;20010;-80
2023/10/11 18:31:08;;;;;;;15.68;4.65;;;;;;;20.76;60.89;99679.41;12161272;19;20003;-79
2023/10/11 18:35:11;;;;;;;11.75;4.22;;;;;;;20.75;60.91;99679.75;12182094;19;20007;-80
2023/10/11 18:39:18;;;;;;;16.90;4.78;;;;;;;20.75;60.75;99680.56;12159705;19;20016;-80
2023/10/11 18:43:21;;;;;;;8.57;4.13;;;;;;;20.73;61.07;99677.25;12182233;19;19999;-80
2023/10/11 18:47:23;;;;;;;13.70;3.57;;;;;;;20.69;61.15;99670.63;12187688;19;20002;-80
2023/10/11 18:51:24;;;;;;;9.73;3.47;;;;;;;20.68;61.08;99674.59;12163408;19;20074;-80
2023/10/11 18:55:26;;;;;;;10.43;3.40;;;;;;;20.67;61.51;99670.13;12180547;19;20821;-80
2023/10/11 18:59:29;;;;;;;12.02;4.30;;;;;;;20.69;60.91;99668.66;12178497;19;20247;-80
2023/10/11 19:03:31;;;;;;;10.93;3.77;;;;;;;20.70;61.06;99664.75;12172543;19;20000;-80
2023/10/11 19:07:35;;;;;;;11.45;4.50;;;;;;;20.65;61.81;99664.03;12187127;19;20014;-80
2023/10/11 19:11:38;;;;;;;14.30;4.88;;;;;;;20.61;62.26;99663.00;12185118;19;20006;-80
2023/10/11 19:15:40;;;;;;;;;;;;;;;20.56;61.92;99661.19;12166315;19;20050;-80
2023/10/11 19:19:42;;;;;;;11.02;4.32;;;;;;;20.56;61.99;99654.78;12186928;19;19937;-80
2023/10/11 19:23:45;;;;;;;12.52;3.88;;;;;;;20.52;62.25;99651.75;12182185;19;20010;-80